Time;durP1;ratioP1;P1;durP2;ratioP2;P2;SDS_P1;SDS_P2;PMS_P1;PMS_P2;Temp;Humidity;BMP_temperature;BMP_pressure;BME280_temperature;BME280_humidity;BME280_pressure;Samples;Min_cycle;Max_cycle;Signal;HPM_P1;HPM_P2
2023/08/03 00:02:03;;;;;;;3.75;1.00;;;;;;;;;;5014699;28;20057;-81
2023/08/03 00:04:29;;;;;;;2.65;1.23;;;;;;;;;;5013978;28;20049;-82
2023/08/03 00:06:55;;;;;;;5.38;1.15;;;;;;;;;;4996746;28;20037;-81
2023/08/03 00:09:21;;;;;;;1.70;0.80;;;;;;;;;;4994479;28;20046;-81
2023/08/03 00:11:47;;;;;;;8.55;0.98;;;;;;;;;;4996135;28;20045;-82
2023/08/03 00:14:13;;;;;;;4.38;1.35;;;;;;;;;;5013741;28;20049;-81
2023/08/03 00:16:39;;;;;;;3.65;1.10;;;;;;;;;;4996212;28;20038;-81
2023/08/03 00:19:05;;;;;;;2.05;0.82;;;;;;;;;;4985743;28;20034;-81
2023/08/03 00:21:31;;;;;;;3.88;0.90;;;;;;;;;;5012858;28;20038;-81
2023/08/03 00:23:57;;;;;;;2.58;1.00;;;;;;;;;;5014081;28;20085;-81
2023/08/03 00:26:23;;;;;;;3.78;0.77;;;;;;;;;;5013373;28;20820;-80
2023/08/03 00:28:49;;;;;;;3.70;1.23;;;;;;;;;;5012446;28;20046;-80
2023/08/03 00:31:15;;;;;;;3.90;0.90;;;;;;;;;;4999308;28;20129;-80
2023/08/03 00:33:41;;;;;;;4.10;0.98;;;;;;;;;;5012612;28;20103;-80
2023/08/03 00:36:07;;;;;;;3.22;0.77;;;;;;;;;;5012993;28;20092;-80
2023/08/03 00:38:33;;;;;;;5.22;1.20;;;;;;;;;;5013062;28;20525;-80
2023/08/03 00:40:59;;;;;;;3.22;1.00;;;;;;;;;;4988319;28;20041;-81
2023/08/03 00:43:25;;;;;;;3.80;1.08;;;;;;;;;;5013706;28;20133;-81
2023/08/03 00:45:51;;;;;;;2.70;1.00;;;;;;;;;;5013472;28;20122;-81
2023/08/03 00:48:19;;;;;;;5.18;0.80;;;;;;;;;;5013496;28;20449;-81
2023/08/03 00:50:45;;;;;;;5.28;1.10;;;;;;;;;;5013137;28;20089;-81
2023/08/03 00:53:11;;;;;;;2.90;1.00;;;;;;;;;;5013112;28;20045;-81
2023/08/03 00:55:37;;;;;;;11.85;1.00;;;;;;;;;;5012710;28;20046;-81
2023/08/03 00:58:03;;;;;;;5.00;0.98;;;;;;;;;;4995273;28;20045;-81
2023/08/03 01:00:29;;;;;;;3.60;1.10;;;;;;;;;;5012673;28;20128;-81
2023/08/03 01:02:55;;;;;;;5.18;1.23;;;;;;;;;;4994846;28;20076;-81
2023/08/03 01:05:21;;;;;;;5.70;1.70;;;;;;;;;;5012445;28;20054;-81
2023/08/03 01:07:47;;;;;;;4.97;1.08;;;;;;;;;;5013106;28;20037;-81
2023/08/03 01:10:13;;;;;;;3.08;1.30;;;;;;;;;;5013174;28;20560;-81
2023/08/03 01:12:39;;;;;;;4.28;1.25;;;;;;;;;;5012662;28;20048;-80
2023/08/03 01:15:06;;;;;;;2.70;0.90;;;;;;;;;;4994515;28;20057;-81
2023/08/03 01:17:32;;;;;;;2.88;0.85;;;;;;;;;;5012415;28;20119;-81
2023/08/03 01:19:58;;;;;;;6.53;1.00;;;;;;;;;;5012009;28;20046;-81
2023/08/03 01:22:25;;;;;;;2.67;1.00;;;;;;;;;;4994203;28;20382;-81
2023/08/03 01:24:51;;;;;;;5.13;0.90;;;;;;;;;;5012878;28;20042;-81
2023/08/03 01:27:17;;;;;;;2.58;0.70;;;;;;;;;;5012201;28;20034;-81
2023/08/03 01:29:43;;;;;;;2.13;0.80;;;;;;;;;;5012054;28;20164;-80
2023/08/03 01:32:09;;;;;;;3.95;0.88;;;;;;;;;;5007709;28;20176;-81
2023/08/03 01:34:35;;;;;;;2.78;1.00;;;;;;;;;;5012176;28;20503;-81
2023/08/03 01:37:01;;;;;;;4.30;1.10;;;;;;;;;;4998490;28;20371;-81
2023/08/03 01:39:27;;;;;;;3.58;1.08;;;;;;;;;;5005793;28;20065;-81
2023/08/03 01:41:53;;;;;;;2.15;0.88;;;;;;;;;;4991054;28;20041;-81
2023/08/03 01:44:25;;;;;;;7.55;0.90;;;;;;;;;;4994901;28;20048;-81
2023/08/03 01:46:52;;;;;;;4.13;1.02;;;;;;;;;;5012231;28;20037;-81
2023/08/03 01:49:18;;;;;;;2.72;0.90;;;;;;;;;;5008865;28;20112;-81
2023/08/03 01:51:44;;;;;;;2.20;0.90;;;;;;;;;;4993335;28;20125;-81
2023/08/03 01:54:11;;;;;;;2.58;1.00;;;;;;;;;;5011884;28;20128;-81
2023/08/03 01:56:37;;;;;;;3.58;1.13;;;;;;;;;;4994569;28;20042;-82
2023/08/03 01:59:03;;;;;;;3.53;1.10;;;;;;;;;;4976779;28;20038;-82
2023/08/03 02:01:29;;;;;;;4.35;1.20;;;;;;;;;;4994144;28;20504;-82
2023/08/03 02:03:55;;;;;;;3.17;1.00;;;;;;;;;;4994278;28;20026;-82
2023/08/03 02:06:21;;;;;;;3.05;0.93;;;;;;;;;;5010874;28;20046;-81
2023/08/03 02:08:47;;;;;;;3.97;1.00;;;;;;;;;;4994122;28;20062;-81
2023/08/03 02:11:13;;;;;;;6.90;1.27;;;;;;;;;;5012150;28;20137;-82
2023/08/03 02:13:39;;;;;;;4.20;1.05;;;;;;;;;;5012069;28;20529;-81
2023/08/03 02:16:09;;;;;;;3.20;1.00;;;;;;;;;;5012072;28;20042;-81
2023/08/03 02:18:35;;;;;;;6.65;1.20;;;;;;;;;;5011235;28;20045;-81
2023/08/03 02:21:01;;;;;;;6.97;1.30;;;;;;;;;;5005097;28;20046;-81
2023/08/03 02:23:27;;;;;;;4.85;1.00;;;;;;;;;;5011184;28;20030;-81
2023/08/03 02:25:53;;;;;;;4.75;1.00;;;;;;;;;;5011243;28;20046;-81
2023/08/03 02:28:19;;;;;;;6.03;1.20;;;;;;;;;;5011708;28;20034;-81
2023/08/03 02:30:45;;;;;;;6.88;1.45;;;;;;;;;;5010995;28;20046;-81
2023/08/03 02:33:11;;;;;;;7.65;1.75;;;;;;;;;;4993866;28;20049;-81
2023/08/03 02:35:39;;;;;;;8.00;1.35;;;;;;;;;;5011291;28;20046;-81
2023/08/03 02:38:05;;;;;;;4.90;1.17;;;;;;;;;;5011161;28;20081;-80
2023/08/03 02:40:31;;;;;;;8.77;1.42;;;;;;;;;;5011514;28;20062;-81
2023/08/03 02:42:57;;;;;;;7.25;1.73;;;;;;;;;;5003645;28;20113;-81
2023/08/03 02:45:23;;;;;;;12.20;1.52;;;;;;;;;;5009774;28;20045;-81
2023/08/03 02:47:49;;;;;;;7.82;1.23;;;;;;;;;;5011507;28;20030;-81
2023/08/03 02:50:15;;;;;;;8.57;1.48;;;;;;;;;;4993498;28;20056;-81
2023/08/03 02:52:41;;;;;;;9.30;1.35;;;;;;;;;;5011084;28;20053;-81
2023/08/03 02:55:07;;;;;;;8.63;1.45;;;;;;;;;;4992839;28;20054;-81
2023/08/03 02:57:33;;;;;;;8.10;1.60;;;;;;;;;;4992475;28;20065;-81
2023/08/03 02:59:59;;;;;;;8.82;1.63;;;;;;;;;;4990809;28;20833;-81
2023/08/03 03:02:25;;;;;;;9.88;2.03;;;;;;;;;;5010376;28;20054;-81
2023/08/03 03:04:51;;;;;;;12.00;2.95;;;;;;;;;;4990449;28;20490;-82
2023/08/03 03:07:17;;;;;;;11.45;2.55;;;;;;;;;;5007725;28;20038;-81
2023/08/03 03:09:43;;;;;;;9.45;1.98;;;;;;;;;;5013324;28;20833;-81
2023/08/03 03:12:09;;;;;;;12.18;1.60;;;;;;;;;;5004696;28;20078;-82
2023/08/03 03:14:35;;;;;;;12.68;2.08;;;;;;;;;;5005622;28;20046;-82
2023/08/03 03:17:02;;;;;;;8.73;1.98;;;;;;;;;;4992104;28;20038;-81
2023/08/03 03:19:28;;;;;;;14.02;2.72;;;;;;;;;;4992551;28;20497;-82
2023/08/03 03:21:54;;;;;;;10.43;1.67;;;;;;;;;;5008702;28;20037;-82
2023/08/03 03:24:20;;;;;;;11.65;1.88;;;;;;;;;;4995822;28;20084;-82
2023/08/03 03:26:46;;;;;;;8.18;1.60;;;;;;;;;;4994089;28;20117;-81
2023/08/03 03:29:12;;;;;;;10.10;1.83;;;;;;;;;;4996475;28;20577;-82
2023/08/03 03:31:38;;;;;;;12.70;1.92;;;;;;;;;;4987889;28;20074;-82
2023/08/03 03:34:04;;;;;;;12.90;2.03;;;;;;;;;;4983152;28;20046;-82
2023/08/03 03:36:30;;;;;;;12.35;1.67;;;;;;;;;;4994619;28;20089;-82
2023/08/03 03:38:56;;;;;;;14.57;2.47;;;;;;;;;;4995764;28;20037;-82
2023/08/03 03:41:22;;;;;;;11.13;1.80;;;;;;;;;;5014391;28;20556;-81
2023/08/03 03:43:48;;;;;;;11.32;1.63;;;;;;;;;;4993263;28;20157;-82
2023/08/03 03:46:14;;;;;;;11.88;2.17;;;;;;;;;;5003103;28;20110;-82
2023/08/03 03:48:40;;;;;;;11.90;2.00;;;;;;;;;;5013039;28;20034;-81
2023/08/03 03:51:06;;;;;;;15.20;2.80;;;;;;;;;;4997596;28;20049;-81
2023/08/03 03:53:32;;;;;;;10.73;2.13;;;;;;;;;;5008163;28;20397;-81
2023/08/03 03:55:58;;;;;;;12.20;1.88;;;;;;;;;;4993983;28;20042;-82
2023/08/03 03:58:24;;;;;;;11.93;2.85;;;;;;;;;;5001095;28;20038;-82
2023/08/03 04:00:50;;;;;;;14.52;2.03;;;;;;;;;;4994244;28;20572;-82
2023/08/03 04:03:16;;;;;;;13.70;2.40;;;;;;;;;;4978396;28;20038;-82
2023/08/03 04:05:42;;;;;;;10.55;2.17;;;;;;;;;;5004761;28;20050;-82
2023/08/03 04:08:09;;;;;;;9.20;1.75;;;;;;;;;;4983244;28;20045;-82
2023/08/03 04:10:36;;;;;;;12.55;2.15;;;;;;;;;;4995081;28;20084;-82
2023/08/03 04:13:02;;;;;;;9.40;2.83;;;;;;;;;;5004799;28;20489;-83
2023/08/03 04:15:28;;;;;;;14.27;2.03;;;;;;;;;;4995583;28;20045;-82
2023/08/03 04:17:54;;;;;;;15.68;2.70;;;;;;;;;;4993243;28;20845;-83
2023/08/03 04:20:20;;;;;;;12.60;2.00;;;;;;;;;;5013211;28;20061;-83
2023/08/03 04:22:46;;;;;;;11.10;1.65;;;;;;;;;;4993194;28;20038;-83
2023/08/03 04:25:12;;;;;;;11.10;1.85;;;;;;;;;;4989405;28;20572;-83
2023/08/03 04:27:37;;;;;;;8.75;1.75;;;;;;;;;;5001465;28;20160;-83
2023/08/03 04:30:04;;;;;;;11.77;2.10;;;;;;;;;;4988713;28;20155;-82
2023/08/03 04:32:30;;;;;;;11.18;2.10;;;;;;;;;;4991234;28;20052;-82
2023/08/03 04:34:56;;;;;;;10.90;1.95;;;;;;;;;;5012368;28;20072;-82
2023/08/03 04:37:22;;;;;;;13.52;2.00;;;;;;;;;;4993979;28;20065;-81
2023/08/03 04:39:49;;;;;;;11.10;2.00;;;;;;;;;;5006385;28;20424;-82
2023/08/03 04:42:15;;;;;;;8.10;1.75;;;;;;;;;;4993559;28;20501;-82
2023/08/03 04:44:41;;;;;;;7.63;1.48;;;;;;;;;;4987910;28;20473;-82
2023/08/03 04:47:07;;;;;;;10.82;1.63;;;;;;;;;;4995018;28;20061;-82
2023/08/03 04:49:33;;;;;;;12.93;2.25;;;;;;;;;;4991271;28;20547;-82
2023/08/03 04:51:59;;;;;;;13.70;2.28;;;;;;;;;;4995053;28;20042;-82
2023/08/03 04:54:25;;;;;;;11.38;1.92;;;;;;;;;;5006848;28;20046;-82
2023/08/03 04:56:51;;;;;;;11.20;2.13;;;;;;;;;;4993887;28;20053;-82
2023/08/03 04:59:17;;;;;;;7.97;1.30;;;;;;;;;;4994267;28;20046;-82
2023/08/03 05:01:43;;;;;;;12.30;2.38;;;;;;;;;;4993922;28;20061;-83
2023/08/03 05:04:09;;;;;;;8.65;1.73;;;;;;;;;;4994825;28;20038;-83
2023/08/03 05:06:35;;;;;;;10.65;2.42;;;;;;;;;;4992436;28;20704;-83
2023/08/03 05:09:01;;;;;;;9.73;2.00;;;;;;;;;;4994562;28;20048;-83
2023/08/03 05:11:27;;;;;;;8.13;1.38;;;;;;;;;;4982356;28;20049;-82
2023/08/03 05:13:53;;;;;;;12.77;2.00;;;;;;;;;;4989438;28;20125;-82
2023/08/03 05:16:24;;;;;;;9.10;1.60;;;;;;;;;;5008763;28;20073;-82
2023/08/03 05:18:50;;;;;;;12.02;2.03;;;;;;;;;;4995361;28;20040;-81
2023/08/03 05:21:16;;;;;;;9.77;2.17;;;;;;;;;;4994642;28;20120;-82
2023/08/03 05:23:42;;;;;;;10.50;1.60;;;;;;;;;;4990043;28;20166;-82
2023/08/03 05:26:08;;;;;;;10.63;1.83;;;;;;;;;;4982087;28;20049;-83
2023/08/03 05:28:34;;;;;;;11.40;1.67;;;;;;;;;;4984341;28;20034;-82
2023/08/03 05:31:00;;;;;;;7.13;1.48;;;;;;;;;;5012994;28;20045;-82
2023/08/03 05:33:27;;;;;;;10.10;1.60;;;;;;;;;;5012377;28;20536;-82
2023/08/03 05:35:53;;;;;;;9.27;1.63;;;;;;;;;;5012789;28;20125;-82
2023/08/03 05:38:19;;;;;;;8.05;1.50;;;;;;;;;;4988510;28;20052;-81
2023/08/03 05:40:45;;;;;;;11.85;2.10;;;;;;;;;;4985524;28;20050;-82
2023/08/03 05:43:11;;;;;;;11.68;1.80;;;;;;;;;;4994962;28;20037;-82
2023/08/03 05:45:44;;;;;;;10.43;1.58;;;;;;;;;;5013320;28;20050;-83
2023/08/03 05:48:15;;;;;;;12.35;1.98;;;;;;;;;;4993537;28;20124;-82
2023/08/03 05:50:42;;;;;;;11.10;2.00;;;;;;;;;;5017717;28;20052;-83
2023/08/03 05:53:12;;;;;;;11.23;1.42;;;;;;;;;;5017301;28;20046;-84
2023/08/03 05:55:41;;;;;;;11.05;1.98;;;;;;;;;;5015943;28;20038;-82
2023/08/03 05:58:09;;;;;;;9.18;1.65;;;;;;;;;;4998450;28;20065;-83
2023/08/03 06:00:35;;;;;;;9.02;1.80;;;;;;;;;;5005207;28;20057;-83
2023/08/03 06:03:02;;;;;;;8.40;1.52;;;;;;;;;;4981667;28;20038;-82
2023/08/03 06:05:36;;;;;;;8.98;2.03;;;;;;;;;;5010807;28;20128;-83
2023/08/03 06:08:05;;;;;;;9.63;2.33;;;;;;;;;;4993088;28;20528;-82
2023/08/03 06:10:31;;;;;;;11.32;1.65;;;;;;;;;;5005320;28;20049;-82
2023/08/03 06:12:57;;;;;;;18.08;2.35;;;;;;;;;;5002473;28;20033;-83
2023/08/03 06:15:23;;;;;;;12.80;2.05;;;;;;;;;;4990985;28;20719;-82
2023/08/03 06:17:49;;;;;;;14.43;2.50;;;;;;;;;;5009477;28;20076;-82
2023/08/03 06:20:15;;;;;;;9.27;1.67;;;;;;;;;;5011743;28;20085;-82
2023/08/03 06:22:41;;;;;;;10.55;1.80;;;;;;;;;;5011114;28;20030;-82
2023/08/03 06:25:09;;;;;;;13.23;1.88;;;;;;;;;;5000789;28;20042;-82
2023/08/03 06:27:35;;;;;;;8.38;1.50;;;;;;;;;;5005163;28;20113;-82
2023/08/03 06:30:01;;;;;;;9.70;1.80;;;;;;;;;;4993669;28;20140;-81
2023/08/03 06:32:29;;;;;;;10.40;2.20;;;;;;;;;;5011101;28;20117;-82
2023/08/03 06:34:56;;;;;;;10.82;1.83;;;;;;;;;;5010329;28;20074;-82
2023/08/03 06:37:22;;;;;;;12.30;1.58;;;;;;;;;;4992814;28;20041;-82
2023/08/03 06:39:51;;;;;;;9.88;1.33;;;;;;;;;;5009231;28;20477;-82
2023/08/03 06:42:17;;;;;;;9.00;1.65;;;;;;;;;;5010569;28;20037;-82
2023/08/03 06:44:43;;;;;;;13.38;2.10;;;;;;;;;;5008533;28;20092;-82
2023/08/03 06:47:09;;;;;;;10.10;2.30;;;;;;;;;;5007275;28;20034;-83
2023/08/03 06:49:35;;;;;;;9.52;1.50;;;;;;;;;;5000947;28;20054;-83
2023/08/03 06:52:01;;;;;;;7.85;1.48;;;;;;;;;;4987303;28;20080;-83
2023/08/03 06:54:27;;;;;;;7.32;1.80;;;;;;;;;;4983548;28;20053;-83
2023/08/03 06:56:53;;;;;;;8.48;1.25;;;;;;;;;;5010581;28;20061;-83
2023/08/03 06:59:21;;;;;;;8.48;1.15;;;;;;;;;;4992669;28;20069;-83
2023/08/03 07:01:48;;;;;;;7.47;1.48;;;;;;;;;;5006574;28;20033;-83
2023/08/03 07:04:14;;;;;;;5.78;0.90;;;;;;;;;;4993158;28;20104;-83
2023/08/03 07:06:40;;;;;;;7.80;1.30;;;;;;;;;;4989495;28;20038;-83
2023/08/03 07:09:06;;;;;;;10.88;1.70;;;;;;;;;;4994321;28;20121;-82
2023/08/03 07:11:32;;;;;;;10.60;1.55;;;;;;;;;;4975865;28;20433;-82
2023/08/03 07:13:58;;;;;;;6.88;1.52;;;;;;;;;;4988165;28;20038;-83
2023/08/03 07:16:24;;;;;;;6.43;1.00;;;;;;;;;;5004122;28;20034;-83
2023/08/03 07:18:51;;;;;;;9.80;1.23;;;;;;;;;;5009150;28;20511;-83
2023/08/03 07:21:17;;;;;;;7.25;1.02;;;;;;;;;;5002212;28;20033;-83
2023/08/03 07:23:43;;;;;;;6.28;1.17;;;;;;;;;;5008246;28;20080;-83
2023/08/03 07:26:16;;;;;;;5.25;0.98;;;;;;;;;;4978842;28;20617;-83
2023/08/03 07:28:42;;;;;;;8.07;1.20;;;;;;;;;;5006619;28;20037;-83
2023/08/03 07:31:14;;;;;;;6.13;1.13;;;;;;;;;;4985640;28;20056;-83
2023/08/03 07:33:40;;;;;;;5.15;1.13;;;;;;;;;;4988023;28;20039;-83
2023/08/03 07:36:06;;;;;;;4.68;1.35;;;;;;;;;;4992778;28;20066;-84
2023/08/03 07:38:32;;;;;;;8.88;1.50;;;;;;;;;;5010561;28;20073;-83
2023/08/03 07:40:58;;;;;;;7.05;1.27;;;;;;;;;;4993095;28;20354;-84
2023/08/03 07:43:24;;;;;;;5.53;0.90;;;;;;;;;;5010276;28;20046;-84
2023/08/03 07:45:50;;;;;;;4.72;0.90;;;;;;;;;;5010812;28;20120;-84
2023/08/03 07:48:16;;;;;;;11.02;1.30;;;;;;;;;;4988239;28;20088;-84
2023/08/03 07:50:42;;;;;;;3.38;0.98;;;;;;;;;;5012023;28;20038;-84
2023/08/03 07:53:08;;;;;;;8.18;1.17;;;;;;;;;;5007649;28;20058;-84
2023/08/03 07:55:34;;;;;;;7.85;0.70;;;;;;;;;;4996209;28;20068;-83
2023/08/03 07:58:00;;;;;;;5.07;0.75;;;;;;;;;;4985005;28;20378;-84
2023/08/03 08:00:26;;;;;;;7.55;0.90;;;;;;;;;;5013520;28;20042;-84
2023/08/03 08:02:52;;;;;;;5.43;0.75;;;;;;;;;;4992834;28;20042;-84
2023/08/03 08:05:22;;;;;;;3.70;0.65;;;;;;;;;;5009735;28;20054;-84
2023/08/03 08:07:48;;;;;;;7.22;0.90;;;;;;;;;;4988896;28;20042;-84
2023/08/03 08:10:14;;;;;;;3.75;0.70;;;;;;;;;;4982557;28;20068;-84
2023/08/03 08:12:40;;;;;;;6.80;0.60;;;;;;;;;;4989211;28;20053;-84
2023/08/03 08:15:06;;;;;;;8.75;1.38;;;;;;;;;;4995537;28;20065;-83
2023/08/03 08:17:32;;;;;;;3.08;0.60;;;;;;;;;;5013022;28;20113;-83
2023/08/03 08:19:59;;;;;;;4.03;0.70;;;;;;;;;;5013545;28;20221;-84
2023/08/03 08:22:25;;;;;;;2.72;0.57;;;;;;;;;;4991740;28;20824;-83
2023/08/03 08:24:51;;;;;;;2.88;0.63;;;;;;;;;;5004838;28;20104;-84
2023/08/03 08:27:17;;;;;;;3.85;0.70;;;;;;;;;;4991086;28;20157;-84
2023/08/03 08:29:46;;;;;;;4.43;0.50;;;;;;;;;;4995419;28;20042;-84
2023/08/03 08:32:13;;;;;;;2.67;0.45;;;;;;;;;;4987028;28;20043;-84
2023/08/03 08:34:39;;;;;;;4.22;0.60;;;;;;;;;;5007924;28;20118;-84
2023/08/03 08:37:05;;;;;;;2.55;0.50;;;;;;;;;;4985384;28;20046;-84
2023/08/03 08:39:31;;;;;;;5.25;0.60;;;;;;;;;;4992248;28;20161;-84
2023/08/03 08:41:57;;;;;;;2.67;0.57;;;;;;;;;;5006424;28;20096;-83
2023/08/03 08:44:23;;;;;;;4.53;0.60;;;;;;;;;;4995546;28;20534;-84
2023/08/03 08:46:49;;;;;;;3.40;0.40;;;;;;;;;;4995185;28;20520;-84
2023/08/03 08:49:15;;;;;;;2.83;0.68;;;;;;;;;;4985664;28;20045;-84
2023/08/03 08:51:42;;;;;;;2.42;0.40;;;;;;;;;;4990955;28;20042;-84
2023/08/03 08:54:08;;;;;;;1.65;0.32;;;;;;;;;;5008356;28;20201;-83
2023/08/03 08:56:35;;;;;;;2.30;0.30;;;;;;;;;;4994509;28;20042;-83
2023/08/03 08:59:02;;;;;;;1.95;0.40;;;;;;;;;;5012647;28;20033;-83
2023/08/03 09:01:28;;;;;;;1.83;0.32;;;;;;;;;;5009994;28;20393;-83
2023/08/03 09:03:56;;;;;;;3.20;0.50;;;;;;;;;;5012033;28;20061;-83
2023/08/03 09:06:22;;;;;;;1.35;0.40;;;;;;;;;;5011596;28;20072;-84
2023/08/03 09:08:50;;;;;;;1.70;0.40;;;;;;;;;;5012648;28;20044;-84
2023/08/03 09:11:16;;;;;;;2.55;0.55;;;;;;;;;;4986174;28;20042;-84
2023/08/03 09:13:42;;;;;;;2.65;0.50;;;;;;;;;;4987403;28;20065;-84
2023/08/03 09:16:21;;;;;;;2.58;0.50;;;;;;;;;;4989899;28;20046;-84
2023/08/03 09:18:47;;;;;;;1.67;0.35;;;;;;;;;;5009942;28;20044;-84
2023/08/03 09:21:13;;;;;;;2.17;0.40;;;;;;;;;;4994925;28;20048;-83
2023/08/03 09:23:39;;;;;;;1.00;0.30;;;;;;;;;;5003078;28;20065;-83
2023/08/03 09:26:08;;;;;;;2.03;0.40;;;;;;;;;;4984818;28;20080;-84
2023/08/03 09:28:39;;;;;;;2.13;0.40;;;;;;;;;;4993774;28;20045;-84
2023/08/03 09:31:05;;;;;;;2.63;0.40;;;;;;;;;;4994818;28;20052;-84
2023/08/03 09:33:32;;;;;;;1.98;0.40;;;;;;;;;;4993436;28;20073;-83
2023/08/03 09:36:14;;;;;;;2.88;0.40;;;;;;;;;;4991338;28;20599;-83
2023/08/03 09:38:40;;;;;;;2.63;0.40;;;;;;;;;;4992021;28;20089;-83
2023/08/03 09:41:08;;;;;;;2.22;0.40;;;;;;;;;;4994034;28;20572;-83
2023/08/03 09:43:34;;;;;;;2.95;0.50;;;;;;;;;;4992520;28;20370;-84
2023/08/03 09:46:01;;;;;;;1.30;0.30;;;;;;;;;;4993383;28;20092;-83
2023/08/03 09:48:27;;;;;;;1.38;0.30;;;;;;;;;;5011172;28;20555;-83
2023/08/03 09:50:55;;;;;;;2.75;0.43;;;;;;;;;;4990886;28;20074;-84
2023/08/03 09:53:22;;;;;;;4.30;0.55;;;;;;;;;;5010448;28;20033;-84
2023/08/03 09:55:57;;;;;;;2.92;0.55;;;;;;;;;;4990906;28;20074;-83
2023/08/03 09:58:28;;;;;;;1.85;0.40;;;;;;;;;;4989805;28;20436;-83
2023/08/03 10:00:54;;;;;;;4.70;0.43;;;;;;;;;;4993488;28;20084;-83
2023/08/03 10:03:22;;;;;;;1.15;0.30;;;;;;;;;;4989341;28;20376;-84
2023/08/03 10:06:02;;;;;;;7.10;0.63;;;;;;;;;;5011117;28;20073;-83
2023/08/03 10:08:48;;;;;;;3.22;0.70;;;;;;;;;;4987897;28;20094;-83
2023/08/03 10:11:14;;;;;;;3.13;0.40;;;;;;;;;;4974289;28;20129;-83
2023/08/03 10:13:47;;;;;;;3.13;0.43;;;;;;;;;;4986038;28;20038;-82
2023/08/03 10:16:17;;;;;;;2.10;0.52;;;;;;;;;;5006638;28;20037;-83
2023/08/03 10:18:44;;;;;;;1.83;0.30;;;;;;;;;;5010097;28;20088;-82
2023/08/03 10:21:11;;;;;;;4.35;0.60;;;;;;;;;;4996477;28;20054;-83
2023/08/03 10:23:42;;;;;;;6.82;0.65;;;;;;;;;;4989393;28;20129;-83
2023/08/03 10:26:08;;;;;;;1.70;0.33;;;;;;;;;;4986929;28;20142;-83
2023/08/03 10:28:40;;;;;;;3.20;0.70;;;;;;;;;;4989249;28;20293;-82
2023/08/03 10:31:18;;;;;;;2.95;0.50;;;;;;;;;;4983494;28;20565;-83
2023/08/03 10:33:50;;;;;;;2.75;0.65;;;;;;;;;;4983904;28;20052;-82
2023/08/03 10:36:29;;;;;;;5.20;0.68;;;;;;;;;;5008189;28;20702;-83
2023/08/03 10:39:12;;;;;;;3.72;0.75;;;;;;;;;;4979248;28;20511;-83
2023/08/03 10:41:41;;;;;;;11.07;1.00;;;;;;;;;;4983971;28;20056;-83
2023/08/03 10:44:07;;;;;;;3.95;0.80;;;;;;;;;;5010863;28;20165;-83
2023/08/03 10:46:47;;;;;;;4.72;0.77;;;;;;;;;;4984400;28;20124;-83
2023/08/03 10:49:19;;;;;;;5.07;0.52;;;;;;;;;;5010707;28;20050;-82
2023/08/03 10:51:45;;;;;;;3.90;0.82;;;;;;;;;;5011289;28;20048;-83
2023/08/03 10:54:12;;;;;;;4.10;0.60;;;;;;;;;;5011339;28;20046;-83
2023/08/03 10:56:38;;;;;;;3.40;0.73;;;;;;;;;;5010706;28;20038;-83
2023/08/03 10:59:04;;;;;;;4.47;0.80;;;;;;;;;;4992641;28;20460;-83
2023/08/03 11:01:31;;;;;;;2.58;0.70;;;;;;;;;;4993552;28;20760;-83
2023/08/03 11:03:58;;;;;;;1.77;0.50;;;;;;;;;;4993733;28;20037;-83
2023/08/03 11:06:25;;;;;;;3.65;0.60;;;;;;;;;;5009812;28;20057;-83
2023/08/03 11:08:51;;;;;;;3.97;0.50;;;;;;;;;;4983650;28;20096;-83
2023/08/03 11:11:22;;;;;;;2.53;0.57;;;;;;;;;;4981360;28;20556;-83
2023/08/03 11:13:48;;;;;;;3.37;0.30;;;;;;;;;;5002676;28;20046;-83
2023/08/03 11:16:23;;;;;;;1.00;0.28;;;;;;;;;;4978624;28;20042;-83
2023/08/03 11:18:49;;;;;;;3.30;0.75;;;;;;;;;;4999199;28;20046;-82
2023/08/03 11:21:15;;;;;;;0.95;0.20;;;;;;;;;;4981711;28;20057;-83
2023/08/03 11:23:41;;;;;;;1.77;0.40;;;;;;;;;;4993060;28;20096;-83
2023/08/03 11:26:11;;;;;;;2.35;0.45;;;;;;;;;;5012113;28;20476;-82
2023/08/03 11:28:43;;;;;;;2.25;0.45;;;;;;;;;;5014568;28;20045;-83
2023/08/03 11:31:19;;;;;;;3.17;0.55;;;;;;;;;;5009392;28;20158;-83
2023/08/03 11:33:50;;;;;;;1.98;0.40;;;;;;;;;;5012882;28;20049;-83
2023/08/03 11:36:17;;;;;;;;;;;;;;;;;;4996668;28;20073;-83
2023/08/03 11:38:44;;;;;;;1.35;0.40;;;;;;;;;;4985865;28;20937;-83
2023/08/03 11:41:10;;;;;;;6.53;0.47;;;;;;;;;;5011580;28;20050;-83
2023/08/03 11:43:36;;;;;;;5.78;0.60;;;;;;;;;;5013961;28;20038;-83
2023/08/03 11:46:02;;;;;;;2.15;0.40;;;;;;;;;;5012887;28;20568;-83
2023/08/03 11:48:30;;;;;;;3.75;0.40;;;;;;;;;;5014293;28;20038;-83
2023/08/03 11:50:56;;;;;;;4.68;0.50;;;;;;;;;;5013962;28;20437;-82
2023/08/03 11:53:32;;;;;;;4.10;0.50;;;;;;;;;;4996146;28;20041;-83
2023/08/03 11:55:58;;;;;;;3.92;0.60;;;;;;;;;;4995886;28;20515;-83
2023/08/03 11:58:24;;;;;;;2.92;0.40;;;;;;;;;;4992703;28;20066;-83
2023/08/03 12:00:56;;;;;;;3.25;0.50;;;;;;;;;;5002453;28;20077;-83
2023/08/03 12:03:35;;;;;;;2.22;0.45;;;;;;;;;;5016329;28;20037;-82
2023/08/03 12:06:05;;;;;;;2.55;0.35;;;;;;;;;;4998433;28;20536;-83
2023/08/03 12:08:31;;;;;;;3.58;0.45;;;;;;;;;;4996173;28;20038;-83
2023/08/03 12:11:04;;;;;;;2.85;0.60;;;;;;;;;;4980867;28;20042;-83
2023/08/03 12:13:30;;;;;;;6.63;0.50;;;;;;;;;;5011470;28;20523;-82
2023/08/03 12:15:56;;;;;;;2.90;0.40;;;;;;;;;;5012948;28;20205;-82
2023/08/03 12:18:22;;;;;;;3.05;0.63;;;;;;;;;;5004393;28;20408;-83
2023/08/03 12:20:49;;;;;;;1.90;0.57;;;;;;;;;;4984156;28;20053;-83
2023/08/03 12:23:16;;;;;;;4.25;0.50;;;;;;;;;;4995494;28;20091;-83
2023/08/03 12:25:42;;;;;;;1.83;0.30;;;;;;;;;;4988222;28;20773;-83
2023/08/03 12:28:08;;;;;;;2.20;0.47;;;;;;;;;;5004727;28;20110;-82
2023/08/03 12:30:34;;;;;;;3.55;0.40;;;;;;;;;;4984879;28;20040;-82
2023/08/03 12:33:00;;;;;;;3.45;0.30;;;;;;;;;;5009964;28;20045;-82
2023/08/03 12:35:27;;;;;;;1.85;0.30;;;;;;;;;;5010100;28;20046;-82
2023/08/03 12:37:53;;;;;;;2.17;0.40;;;;;;;;;;5004087;28;20041;-83
2023/08/03 12:40:19;;;;;;;7.20;0.50;;;;;;;;;;4991959;28;20070;-82
2023/08/03 12:42:45;;;;;;;1.45;0.20;;;;;;;;;;4982481;28;20101;-83
2023/08/03 12:45:11;;;;;;;3.58;0.35;;;;;;;;;;4995192;28;20058;-83
2023/08/03 12:47:37;;;;;;;1.77;0.40;;;;;;;;;;4994524;28;20124;-83
2023/08/03 12:50:04;;;;;;;1.35;0.40;;;;;;;;;;4989664;28;20160;-83
2023/08/03 12:52:30;;;;;;;3.22;0.28;;;;;;;;;;4984659;28;20061;-83
2023/08/03 12:54:56;;;;;;;1.48;0.30;;;;;;;;;;4988109;28;20056;-83
2023/08/03 12:57:22;;;;;;;0.98;0.30;;;;;;;;;;4993305;28;20042;-83
2023/08/03 12:59:48;;;;;;;3.65;0.52;;;;;;;;;;4997356;28;20048;-83
2023/08/03 13:02:14;;;;;;;5.68;0.45;;;;;;;;;;4976814;28;20038;-84
2023/08/03 13:04:40;;;;;;;1.48;0.32;;;;;;;;;;4989602;28;20046;-83
2023/08/03 13:07:06;;;;;;;1.63;0.30;;;;;;;;;;4992450;28;20034;-83
2023/08/03 13:09:32;;;;;;;4.50;0.40;;;;;;;;;;5012147;28;20053;-82
2023/08/03 13:11:58;;;;;;;2.28;0.30;;;;;;;;;;4994942;28;20372;-82
2023/08/03 13:14:24;;;;;;;3.38;0.30;;;;;;;;;;5012900;28;20125;-83
2023/08/03 13:16:50;;;;;;;1.33;0.30;;;;;;;;;;5012412;28;20121;-83
2023/08/03 13:19:16;;;;;;;4.60;0.30;;;;;;;;;;4993796;28;20045;-83
2023/08/03 13:21:43;;;;;;;1.63;0.30;;;;;;;;;;4994629;28;20081;-83
2023/08/03 13:24:09;;;;;;;2.35;0.40;;;;;;;;;;5011518;28;20042;-83
2023/08/03 13:26:35;;;;;;;1.70;0.63;;;;;;;;;;5012360;28;20045;-82
2023/08/03 13:29:01;;;;;;;2.30;0.50;;;;;;;;;;4993911;28;20492;-83
2023/08/03 13:31:27;;;;;;;1.95;0.32;;;;;;;;;;4986908;28;20042;-83
2023/08/03 13:33:53;;;;;;;1.73;0.40;;;;;;;;;;4995552;28;20041;-83
2023/08/03 13:36:21;;;;;;;2.28;0.25;;;;;;;;;;4976267;28;20042;-83
2023/08/03 13:38:47;;;;;;;1.55;0.38;;;;;;;;;;4990085;28;20034;-83
2023/08/03 13:41:14;;;;;;;2.30;0.60;;;;;;;;;;5001538;28;20453;-83
2023/08/03 13:43:41;;;;;;;2.00;0.20;;;;;;;;;;4993555;28;20033;-83
2023/08/03 13:46:07;;;;;;;6.90;0.32;;;;;;;;;;4998379;28;20043;-83
2023/08/03 13:48:33;;;;;;;1.95;0.25;;;;;;;;;;4981409;28;20473;-83
2023/08/03 13:50:59;;;;;;;2.05;0.30;;;;;;;;;;4994047;28;20083;-83
2023/08/03 13:53:25;;;;;;;2.47;0.50;;;;;;;;;;4994130;28;20071;-83
2023/08/03 13:55:51;;;;;;;3.17;0.30;;;;;;;;;;4993055;28;20077;-83
2023/08/03 13:58:17;;;;;;;2.00;0.40;;;;;;;;;;4978118;28;20536;-83
2023/08/03 14:00:43;;;;;;;2.97;0.40;;;;;;;;;;4993932;28;20046;-83
2023/08/03 14:03:09;;;;;;;1.98;0.40;;;;;;;;;;5011663;28;20473;-83
2023/08/03 14:05:35;;;;;;;3.53;0.43;;;;;;;;;;4989896;28;20054;-83
2023/08/03 14:08:01;;;;;;;1.80;0.40;;;;;;;;;;4991199;28;20041;-83
2023/08/03 14:10:27;;;;;;;2.20;0.65;;;;;;;;;;4991497;28;20540;-83
2023/08/03 14:12:53;;;;;;;1.58;0.40;;;;;;;;;;4990094;28;20046;-83
2023/08/03 14:15:21;;;;;;;2.05;0.40;;;;;;;;;;4991164;28;20050;-83
2023/08/03 14:17:47;;;;;;;2.03;0.40;;;;;;;;;;4973891;28;20493;-83
2023/08/03 14:20:13;;;;;;;3.67;0.88;;;;;;;;;;4991197;28;20074;-83
2023/08/03 14:22:39;;;;;;;1.73;0.47;;;;;;;;;;4991286;28;20038;-83
2023/08/03 14:25:05;;;;;;;1.80;0.30;;;;;;;;;;4972531;28;20106;-83
2023/08/03 14:27:31;;;;;;;4.80;0.40;;;;;;;;;;4991422;28;20042;-83
2023/08/03 14:30:00;;;;;;;1.13;0.25;;;;;;;;;;4989783;28;20046;-83
2023/08/03 14:32:26;;;;;;;4.07;0.40;;;;;;;;;;4990714;28;20046;-84
2023/08/03 14:34:52;;;;;;;2.20;0.32;;;;;;;;;;4964687;28;20043;-84
2023/08/03 14:37:19;;;;;;;1.35;0.40;;;;;;;;;;4989980;28;20050;-83
2023/08/03 14:39:45;;;;;;;2.40;0.30;;;;;;;;;;4991351;28;20046;-83